Back to Top

Language: 

My Weather Underground Personal Weather Station Historical Data with Graphs...

Delerius Weather Station Historical Data
Daily Summary for January 22, 2018 Units:  Metric    English   Both
« Previous Day
Next Day »
Daily Weekly Monthly Yearly Custom
  High: Low: Average:
Temperature: 9.2 °C 5.6 °C 6.9 °C
Dew Point: 6.4 °C 3.1 °C 4.7 °C
Humidity: 91 % 75 % 86 %
Wind Speed: 32.2 km/h 0 km/h 12.4 km/h
Wind Gust: 46.7 km/h - -
Wind:- - West
Pressure: 1014.1 hPa 1003.6 hPa -
Precipitation: 0.25 mm    
Historical Graphs
 
 
Tabular Data for January 22, 2018
Time Temperature Dew Point Pressure Wind Wind Speed Wind Gust Humidity Rainfall Rate (Hourly) solar Conditions
00:03 7.1 °C 5.7 °C 1003.6 hPa NW 6.4 km/h 9.7 km/h 91 % 0 mm 0 W/m2
00:08 7 °C 5.6 °C 1003.6 hPa NW 4.8 km/h 11.3 km/h 91 % 0.25 mm 0 W/m2
00:13 7.1 °C 5.7 °C 1003.6 hPa WNW 3.2 km/h 6.4 km/h 91 % 0.25 mm 0 W/m2
00:18 7 °C 5.6 °C 1003.6 hPa West 9.7 km/h 14.5 km/h 91 % 0.25 mm 0 W/m2
00:23 7.1 °C 5.7 °C 1003.6 hPa West 14.5 km/h 29 km/h 91 % 0.25 mm 0 W/m2
00:28 7.1 °C 5.7 °C 1003.6 hPa WNW 14.5 km/h 19.3 km/h 91 % 0.25 mm 0 W/m2
00:33 7.1 °C 5.7 °C 1003.6 hPa WNW 8 km/h 17.7 km/h 91 % 0.25 mm 0 W/m2
00:38 7.1 °C 5.7 °C 1003.6 hPa WNW 12.9 km/h 20.9 km/h 91 % 0.25 mm 0 W/m2
00:43 7 °C 5.6 °C 1003.6 hPa West 9.7 km/h 16.1 km/h 91 % 0.25 mm 0 W/m2
00:48 7 °C 5.4 °C 1003.9 hPa WSW 6.4 km/h 12.9 km/h 90 % 0.25 mm 0 W/m2
00:53 6.9 °C 5.4 °C 1003.9 hPa West 1.6 km/h 3.2 km/h 90 % 0.25 mm 0 W/m2
00:58 6.9 °C 5.4 °C 1003.9 hPa Calm   1.6 km/h 90 % 0.25 mm 0 W/m2
01:03 6.8 °C 5.3 °C 1003.9 hPa Calm   3.2 km/h 90 % 0.25 mm 0 W/m2
01:08 6.8 °C 5.3 °C 1003.9 hPa West 6.4 km/h 12.9 km/h 90 % 0 mm 0 W/m2
01:13 6.7 °C 5.2 °C 1003.9 hPa West 6.4 km/h 19.3 km/h 90 % 0 mm 0 W/m2
01:19 6.7 °C 5 °C 1003.9 hPa West 6.4 km/h 12.9 km/h 89 % 0 mm 0 W/m2
01:24 6.7 °C 5 °C 1003.9 hPa West 4.8 km/h 9.7 km/h 89 % 0 mm 0 W/m2
01:29 6.7 °C 5 °C 1003.9 hPa West 6.4 km/h 11.3 km/h 89 % 0 mm 0 W/m2
01:34 6.6 °C 4.9 °C 1003.9 hPa WNW 6.4 km/h 11.3 km/h 89 % 0 mm 0 W/m2
01:39 6.6 °C 4.9 °C 1003.6 hPa West 8 km/h 11.3 km/h 89 % 0 mm 0 W/m2
01:44 6.5 °C 4.7 °C 1003.6 hPa WNW 8 km/h 12.9 km/h 88 % 0 mm 0 W/m2
01:49 6.5 °C 4.8 °C 1003.6 hPa WNW 4.8 km/h 11.3 km/h 89 % 0 mm 0 W/m2
01:54 6.5 °C 4.8 °C 1003.6 hPa WNW 11.3 km/h 17.7 km/h 89 % 0 mm 0 W/m2
01:59 6.6 °C 4.9 °C 1003.6 hPa WNW 12.9 km/h 20.9 km/h 89 % 0 mm 0 W/m2
02:04 6.6 °C 4.9 °C 1003.6 hPa West 11.3 km/h 22.5 km/h 89 % 0 mm 0 W/m2
02:09 6.6 °C 4.9 °C 1003.6 hPa West 8 km/h 14.5 km/h 89 % 0 mm 0 W/m2
02:14 6.6 °C 4.9 °C 1003.6 hPa WNW 6.4 km/h 14.5 km/h 89 % 0 mm 0 W/m2
02:19 6.5 °C 4.8 °C 1003.6 hPa WNW 4.8 km/h 9.7 km/h 89 % 0 mm 0 W/m2
02:24 6.4 °C 4.7 °C 1003.9 hPa WNW 4.8 km/h 8 km/h 89 % 0 mm 0 W/m2
02:29 6.3 °C 4.6 °C 1003.9 hPa WNW 6.4 km/h 11.3 km/h 89 % 0 mm 0 W/m2
02:34 6.2 °C 4.5 °C 1003.9 hPa NW 4.8 km/h 9.7 km/h 89 % 0 mm 0 W/m2
02:39 6.1 °C 4.6 °C 1003.9 hPa WNW 6.4 km/h 11.3 km/h 90 % 0 mm 0 W/m2
02:44 6.1 °C 4.6 °C 1003.9 hPa WNW 6.4 km/h 9.7 km/h 90 % 0 mm 0 W/m2
02:49 6 °C 4.5 °C 1003.9 hPa WNW 8 km/h 17.7 km/h 90 % 0 mm 0 W/m2
02:54 6 °C 4.5 °C 1003.9 hPa NW 11.3 km/h 16.1 km/h 90 % 0 mm 0 W/m2
02:59 6 °C 4.5 °C 1003.9 hPa WNW 9.7 km/h 12.9 km/h 90 % 0 mm 0 W/m2
03:04 6 °C 4.5 °C 1004.3 hPa WNW 8 km/h 12.9 km/h 90 % 0 mm 0 W/m2
03:09 6 °C 4.5 °C 1004.3 hPa WNW 3.2 km/h 9.7 km/h 90 % 0 mm 0 W/m2
03:14 6 °C 4.5 °C 1004.6 hPa West 4.8 km/h 8 km/h 90 % 0 mm 0 W/m2
03:19 5.9 °C 4.2 °C 1004.6 hPa WNW 8 km/h 14.5 km/h 89 % 0 mm 0 W/m2
03:24 5.9 °C 4.4 °C 1004.3 hPa WNW 9.7 km/h 17.7 km/h 90 % 0 mm 0 W/m2
03:29 6 °C 4.5 °C 1004.3 hPa WNW 11.3 km/h 17.7 km/h 90 % 0 mm 0 W/m2
03:34 6 °C 4.3 °C 1004.3 hPa WNW 12.9 km/h 19.3 km/h 89 % 0 mm 0 W/m2
03:39 6.1 °C 4.4 °C 1004.3 hPa WNW 14.5 km/h 24.1 km/h 89 % 0 mm 0 W/m2
03:44 6.1 °C 4.4 °C 1004.3 hPa WNW 8 km/h 14.5 km/h 89 % 0 mm 0 W/m2
03:49 6.2 °C 4.3 °C 1004.6 hPa West 6.4 km/h 11.3 km/h 88 % 0 mm 0 W/m2
03:54 6.2 °C 4.3 °C 1004.6 hPa West 6.4 km/h 14.5 km/h 88 % 0 mm 0 W/m2
03:59 6.2 °C 4.3 °C 1004.6 hPa WNW 4.8 km/h 9.7 km/h 88 % 0 mm 0 W/m2
04:05 6.2 °C 4.3 °C 1004.6 hPa WNW 6.4 km/h 14.5 km/h 88 % 0 mm 0 W/m2
04:09 6.2 °C 4.3 °C 1004.6 hPa West 6.4 km/h 17.7 km/h 88 % 0 mm 0 W/m2
04:14 6.2 °C 4.3 °C 1004.6 hPa West 8 km/h 12.9 km/h 88 % 0 mm 0 W/m2
04:20 6.2 °C 4.3 °C 1004.6 hPa WSW 4.8 km/h 14.5 km/h 88 % 0 mm 0 W/m2
04:25 6.2 °C 4.3 °C 1004.6 hPa WSW 1.6 km/h 9.7 km/h 88 % 0 mm 0 W/m2
04:30 6.2 °C 4.3 °C 1004.6 hPa WNW 6.4 km/h 14.5 km/h 88 % 0 mm 0 W/m2
04:35 6.2 °C 4.3 °C 1004.6 hPa WNW 8 km/h 16.1 km/h 88 % 0 mm 0 W/m2
04:40 6.2 °C 4.3 °C 1004.6 hPa West 8 km/h 12.9 km/h 88 % 0 mm 0 W/m2
04:45 6.2 °C 4.3 °C 1004.6 hPa West 9.7 km/h 14.5 km/h 88 % 0 mm 0 W/m2
04:50 6.2 °C 4.3 °C 1004.6 hPa WNW 9.7 km/h 17.7 km/h 88 % 0 mm 0 W/m2
04:55 6.2 °C 4.3 °C 1004.6 hPa West 11.3 km/h 16.1 km/h 88 % 0 mm 0 W/m2
05:05 6.1 °C 4.3 °C 1005 hPa WSW 1.6 km/h 8 km/h 88 % 0 mm 0 W/m2
05:15 6.1 °C 4.3 °C 1005 hPa Calm   1.6 km/h 88 % 0 mm 0 W/m2
05:20 6.1 °C 4.3 °C 1005 hPa West 1.6 km/h 3.2 km/h 88 % 0 mm 0 W/m2
05:25 6.1 °C 4.3 °C 1005 hPa WSW 1.6 km/h 6.4 km/h 88 % 0 mm 0 W/m2
05:35 6.1 °C 4.4 °C 1005 hPa WNW 9.7 km/h 17.7 km/h 89 % 0 mm 0 W/m2
05:40 6.2 °C 4.5 °C 1005 hPa WNW 12.9 km/h 19.3 km/h 89 % 0 mm 0 W/m2
05:45 6.2 °C 4.5 °C 1005 hPa West 12.9 km/h 19.3 km/h 89 % 0 mm 0 W/m2
05:50 6.3 °C 4.6 °C 1005 hPa West 12.9 km/h 17.7 km/h 89 % 0 mm 0 W/m2
05:55 6.3 °C 4.6 °C 1005.3 hPa West 12.9 km/h 22.5 km/h 89 % 0 mm 0 W/m2
06:00 6.3 °C 4.4 °C 1005.3 hPa West 9.7 km/h 14.5 km/h 88 % 0 mm 0 W/m2
06:08 6.3 °C 4.6 °C 1005.3 hPa West 11.3 km/h 20.9 km/h 89 % 0 mm 0 W/m2
06:13 6.3 °C 4.4 °C 1005.3 hPa West 8 km/h 12.9 km/h 88 % 0 mm 0 W/m2
06:18 6.3 °C 4.4 °C 1005.3 hPa West 3.2 km/h 9.7 km/h 88 % 0 mm 0 W/m2
06:23 6.2 °C 4.3 °C 1005.3 hPa West 8 km/h 12.9 km/h 88 % 0 mm 0 W/m2
06:28 6.2 °C 4.5 °C 1005.3 hPa WSW 4.8 km/h 9.7 km/h 89 % 0 mm 0 W/m2
06:33 6.2 °C 4.3 °C 1005.6 hPa WSW 3.2 km/h 9.7 km/h 88 % 0 mm 0 W/m2
06:38 6.1 °C 4.4 °C 1005.6 hPa WSW 3.2 km/h 9.7 km/h 89 % 0 mm 0 W/m2
06:48 6.1 °C 4.4 °C 1005.6 hPa Calm   1.6 km/h 89 % 0 mm 0 W/m2
06:58 5.9 °C 4.2 °C 1005.6 hPa West 4.8 km/h 11.3 km/h 89 % 0 mm 0 W/m2
07:03 5.8 °C 4.1 °C 1005.6 hPa West 8 km/h 11.3 km/h 89 % 0 mm 0 W/m2
07:08 5.8 °C 4.1 °C 1005.6 hPa WSW 8 km/h 14.5 km/h 89 % 0 mm 0 W/m2
07:13 5.8 °C 4.1 °C 1005.6 hPa West 9.7 km/h 17.7 km/h 89 % 0 mm 0 W/m2
07:18 5.8 °C 4.1 °C 1006 hPa West 8 km/h 14.5 km/h 89 % 0 mm 0 W/m2
07:28 5.9 °C 4.2 °C 1006 hPa West 4.8 km/h 9.7 km/h 89 % 0 mm 0 W/m2
07:38 5.9 °C 4.2 °C 1006 hPa West 6.4 km/h 14.5 km/h 89 % 0 mm 0 W/m2
07:43 5.9 °C 4.2 °C 1006 hPa West 6.4 km/h 12.9 km/h 89 % 0 mm 0 W/m2
07:53 5.9 °C 4.4 °C 1006.3 hPa West 4.8 km/h 9.7 km/h 90 % 0 mm 0 W/m2
07:59 5.9 °C 4.4 °C 1006.3 hPa WSW 3.2 km/h 11.3 km/h 90 % 0 mm 0 W/m2
08:04 5.8 °C 4.1 °C 1006.3 hPa Calm   1.6 km/h 89 % 0 mm 0 W/m2
08:09 5.8 °C 4.1 °C 1006.7 hPa Calm   3.2 km/h 89 % 0 mm 5 W/m2
08:14 5.7 °C 4 °C 1006.7 hPa WSW 4.8 km/h 14.5 km/h 89 % 0 mm 9 W/m2
08:19 5.7 °C 4.2 °C 1006.7 hPa Calm   1.6 km/h 90 % 0 mm 12 W/m2
08:24 5.7 °C 4.2 °C 1006.7 hPa West 3.2 km/h 6.4 km/h 90 % 0 mm 16 W/m2
08:29 5.6 °C 4.1 °C 1006.7 hPa Calm   1.6 km/h 90 % 0 mm 23 W/m2
08:34 5.7 °C 4.2 °C 1006.7 hPa West 4.8 km/h 14.5 km/h 90 % 0 mm 32 W/m2
08:44 5.9 °C 4.6 °C 1006.7 hPa WNW 12.9 km/h 19.3 km/h 91 % 0 mm 47 W/m2
08:54 6.3 °C 4.8 °C 1007 hPa WNW 11.3 km/h 19.3 km/h 90 % 0 mm 35 W/m2
08:59 6.3 °C 4.8 °C 1007 hPa WNW 12.9 km/h 19.3 km/h 90 % 0 mm 44 W/m2
09:04 6.4 °C 4.9 °C 1007 hPa West 9.7 km/h 16.1 km/h 90 % 0 mm 56 W/m2
09:09 6.5 °C 5 °C 1007.3 hPa West 14.5 km/h 24.1 km/h 90 % 0 mm 37 W/m2
09:19 6.6 °C 4.9 °C 1007.3 hPa WNW 12.9 km/h 19.3 km/h 89 % 0 mm 35 W/m2
09:24 6.6 °C 4.9 °C 1007.3 hPa WNW 9.7 km/h 16.1 km/h 89 % 0 mm 49 W/m2
09:29 6.6 °C 4.9 °C 1007.7 hPa WNW 12.9 km/h 17.7 km/h 89 % 0 mm 98 W/m2
09:34 6.7 °C 5 °C 1007.7 hPa West 8 km/h 16.1 km/h 89 % 0 mm 151 W/m2
09:44 7.1 °C 5.4 °C 1007.7 hPa WNW 12.9 km/h 22.5 km/h 89 % 0 mm 132 W/m2
09:49 7.2 °C 5.3 °C 1007.3 hPa WNW 20.9 km/h 33.8 km/h 88 % 0 mm 156 W/m2
09:54 7.3 °C 5.3 °C 1007.3 hPa WNW 19.3 km/h 32.2 km/h 87 % 0 mm 134 W/m2
09:59 7.3 °C 5.3 °C 1007.3 hPa WNW 20.9 km/h 37 km/h 87 % 0 mm 130 W/m2
10:04 7.3 °C 5.3 °C 1007.3 hPa West 20.9 km/h 37 km/h 87 % 0 mm 114 W/m2
10:09 7.3 °C 5.3 °C 1007.3 hPa WNW 16.1 km/h 30.6 km/h 87 % 0 mm 118 W/m2
10:14 7.2 °C 5.2 °C 1007.3 hPa WNW 17.7 km/h 30.6 km/h 87 % 0 mm 125 W/m2
10:19 7.2 °C 5.2 °C 1007.7 hPa WNW 20.9 km/h 37 km/h 87 % 0 mm 113 W/m2
10:24 7.2 °C 5.2 °C 1007.7 hPa WNW 19.3 km/h 32.2 km/h 87 % 0 mm 130 W/m2
10:29 7.2 °C 5.2 °C 1008 hPa WNW 20.9 km/h 30.6 km/h 87 % 0 mm 146 W/m2
10:34 7.2 °C 5.2 °C 1008 hPa WNW 24.1 km/h 37 km/h 87 % 0 mm 132 W/m2
10:44 7.3 °C 5.3 °C 1008 hPa WNW 27.4 km/h 41.8 km/h 87 % 0 mm 104 W/m2
10:49 7.3 °C 5.3 °C 1007.7 hPa WNW 24.1 km/h 37 km/h 87 % 0 mm 120 W/m2
10:55 7.3 °C 5.3 °C 1008 hPa WNW 22.5 km/h 35.4 km/h 87 % 0 mm 171 W/m2
11:00 7.4 °C 5.4 °C 1008 hPa WNW 20.9 km/h 32.2 km/h 87 % 0 mm 142 W/m2
11:05 7.4 °C 5.4 °C 1008 hPa WNW 20.9 km/h 37 km/h 87 % 0 mm 111 W/m2
11:10 7.4 °C 5.2 °C 1008 hPa WNW 27.4 km/h 41.8 km/h 86 % 0 mm 98 W/m2
11:15 7.4 °C 5.2 °C 1008 hPa West 27.4 km/h 41.8 km/h 86 % 0 mm 167 W/m2
11:20 7.5 °C 5.3 °C 1008 hPa WNW 29 km/h 41.8 km/h 86 % 0 mm 288 W/m2
11:25 7.8 °C 5.6 °C 1008 hPa West 27.4 km/h 46.7 km/h 86 % 0 mm 353 W/m2
11:45 8.2 °C 5.7 °C 1008 hPa West 27.4 km/h 41.8 km/h 84 % 0 mm 160 W/m2
11:50 8.2 °C 5.7 °C 1008 hPa WNW 29 km/h 41.8 km/h 84 % 0 mm 148 W/m2
11:55 8.1 °C 5.6 °C 1008.4 hPa WNW 30.6 km/h 41.8 km/h 84 % 0 mm 172 W/m2
12:00 8.1 °C 5.6 °C 1008.4 hPa West 32.2 km/h 45.1 km/h 84 % 0 mm 339 W/m2
12:05 8.1 °C 5.6 °C 1008.4 hPa WNW 29 km/h 40.2 km/h 84 % 0 mm 134 W/m2
12:10 8 °C 5.4 °C 1008.4 hPa West 25.7 km/h 41.8 km/h 84 % 0 mm 123 W/m2
12:15 7.9 °C 5.6 °C 1009 hPa West 25.7 km/h 37 km/h 85 % 0 mm 105 W/m2
12:20 7.9 °C 5.6 °C 1009 hPa West 25.7 km/h 37 km/h 85 % 0 mm 81 W/m2
12:25 7.8 °C 5.4 °C 1009.4 hPa WNW 22.5 km/h 40.2 km/h 85 % 0 mm 70 W/m2
12:30 7.8 °C 5.6 °C 1009.4 hPa West 19.3 km/h 29 km/h 86 % 0 mm 77 W/m2
12:35 7.8 °C 5.6 °C 1009.4 hPa WNW 14.5 km/h 25.7 km/h 86 % 0 mm 104 W/m2
12:40 7.8 °C 5.6 °C 1009.7 hPa West 16.1 km/h 29 km/h 86 % 0 mm 114 W/m2
12:45 7.8 °C 5.6 °C 1009.7 hPa West 17.7 km/h 29 km/h 86 % 0 mm 97 W/m2
12:50 7.9 °C 5.9 °C 1010 hPa West 17.7 km/h 35.4 km/h 87 % 0 mm 135 W/m2
12:55 7.9 °C 5.7 °C 1010 hPa West 20.9 km/h 30.6 km/h 86 % 0 mm 137 W/m2
13:00 7.9 °C 5.7 °C 1010 hPa West 20.9 km/h 30.6 km/h 86 % 0 mm 118 W/m2
13:05 7.9 °C 5.7 °C 1010.4 hPa WNW 19.3 km/h 29 km/h 86 % 0 mm 102 W/m2
13:11 7.9 °C 5.9 °C 1010.4 hPa West 16.1 km/h 24.1 km/h 87 % 0 mm 118 W/m2
13:16 7.9 °C 5.9 °C 1010.4 hPa West 14.5 km/h 22.5 km/h 87 % 0 mm 109 W/m2
13:21 7.9 °C 5.9 °C 1010.7 hPa West 16.1 km/h 24.1 km/h 87 % 0 mm 76 W/m2
13:36 8.3 °C 6.3 °C 1010.7 hPa WNW 17.7 km/h 32.2 km/h 87 % 0 mm 271 W/m2
13:41 8.4 °C 6.3 °C 1010.7 hPa WNW 19.3 km/h 32.2 km/h 87 % 0 mm 155 W/m2
13:46 8.4 °C 6.2 °C 1010.7 hPa WNW 14.5 km/h 25.7 km/h 86 % 0 mm 306 W/m2
13:51 8.6 °C 6.4 °C 1010.7 hPa WNW 14.5 km/h 24.1 km/h 86 % 0 mm 239 W/m2
14:01 8.7 °C 6.3 °C 1010.7 hPa West 16.1 km/h 25.7 km/h 85 % 0 mm 251 W/m2
14:06 8.8 °C 6.4 °C 1011.1 hPa WNW 17.7 km/h 22.5 km/h 85 % 0 mm 371 W/m2
14:11 8.8 °C 6.2 °C 1011.1 hPa WNW 16.1 km/h 25.7 km/h 84 % 0 mm 135 W/m2
14:16 8.8 °C 6.2 °C 1011.1 hPa West 16.1 km/h 24.1 km/h 84 % 0 mm 123 W/m2
14:21 8.9 °C 6.3 °C 1011.1 hPa West 24.1 km/h 32.2 km/h 84 % 0 mm 339 W/m2
14:31 9.2 °C 6.3 °C 1011.1 hPa WNW 20.9 km/h 32.2 km/h 82 % 0 mm 148 W/m2
14:36 9.2 °C 6.3 °C 1011.4 hPa West 24.1 km/h 32.2 km/h 82 % 0 mm 79 W/m2
14:41 8.9 °C 6 °C 1011.4 hPa West 20.9 km/h 32.2 km/h 82 % 0 mm 47 W/m2
14:46 8.8 °C 6.1 °C 1011.4 hPa West 17.7 km/h 32.2 km/h 83 % 0 mm 200 W/m2
14:51 8.8 °C 6.1 °C 1011.4 hPa West 17.7 km/h 29 km/h 83 % 0 mm 148 W/m2
14:56 8.7 °C 5.8 °C 1011.4 hPa West 24.1 km/h 37 km/h 82 % 0 mm 79 W/m2
15:01 8.6 °C 5.7 °C 1011.4 hPa WNW 19.3 km/h 32.2 km/h 82 % 0 mm 81 W/m2
15:06 8.5 °C 5.6 °C 1011.7 hPa West 20.9 km/h 37 km/h 82 % 0 mm 81 W/m2
15:11 8.4 °C 5.5 °C 1011.7 hPa West 19.3 km/h 32.2 km/h 82 % 0 mm 44 W/m2
15:16 8.3 °C 5.6 °C 1011.7 hPa West 19.3 km/h 25.7 km/h 83 % 0 mm 54 W/m2
15:21 8.3 °C 5.6 °C 1011.7 hPa West 19.3 km/h 29 km/h 83 % 0 mm 65 W/m2
15:26 8.2 °C 5.7 °C 1012.1 hPa West 14.5 km/h 24.1 km/h 84 % 0 mm 53 W/m2
15:31 8.2 °C 5.7 °C 1012.1 hPa West 16.1 km/h 25.7 km/h 84 % 0 mm 32 W/m2
15:36 8.1 °C 5.7 °C 1012.1 hPa West 14.5 km/h 24.1 km/h 85 % 0 mm 32 W/m2
15:41 8 °C 5.6 °C 1012.1 hPa West 14.5 km/h 24.1 km/h 85 % 0 mm 39 W/m2
15:46 7.9 °C 5.6 °C 1012.1 hPa West 17.7 km/h 25.7 km/h 85 % 0 mm 42 W/m2
15:51 7.8 °C 5.4 °C 1012.1 hPa West 14.5 km/h 24.1 km/h 85 % 0 mm 33 W/m2
15:56 7.7 °C 5.3 °C 1012.1 hPa West 20.9 km/h 33.8 km/h 85 % 0 mm 21 W/m2
16:01 7.6 °C 5.2 °C 1012.4 hPa West 22.5 km/h 32.2 km/h 85 % 0 mm 14 W/m2
16:06 7.6 °C 5.2 °C 1012.4 hPa West 20.9 km/h 37 km/h 85 % 0 mm 11 W/m2
16:12 7.6 °C 5.1 °C 1012.4 hPa West 19.3 km/h 30.6 km/h 84 % 0 mm 7 W/m2
16:17 7.6 °C 5.1 °C 1012.4 hPa West 16.1 km/h 22.5 km/h 84 % 0 mm 5 W/m2
16:22 7.6 °C 5.1 °C 1012.8 hPa West 14.5 km/h 22.5 km/h 84 % 0 mm 5 W/m2
16:27 7.6 °C 5.1 °C 1012.8 hPa West 16.1 km/h 22.5 km/h 84 % 0 mm 0 W/m2
16:32 7.6 °C 5.1 °C 1012.8 hPa West 11.3 km/h 19.3 km/h 84 % 0 mm 0 W/m2
16:37 7.6 °C 5.1 °C 1012.8 hPa WSW 9.7 km/h 16.1 km/h 84 % 0 mm 0 W/m2
16:42 7.5 °C 4.9 °C 1012.8 hPa WSW 6.4 km/h 14.5 km/h 84 % 0 mm 0 W/m2
16:47 7.4 °C 5.1 °C 1012.8 hPa WSW 12.9 km/h 20.9 km/h 85 % 0 mm 0 W/m2
16:52 7.4 °C 4.9 °C 1012.8 hPa WSW 11.3 km/h 16.1 km/h 84 % 0 mm 0 W/m2
16:57 7.4 °C 4.9 °C 1012.8 hPa WSW 11.3 km/h 20.9 km/h 84 % 0 mm 0 W/m2
17:02 7.3 °C 4.8 °C 1013.1 hPa WSW 11.3 km/h 19.3 km/h 84 % 0 mm 0 W/m2
17:07 7.3 °C 4.8 °C 1013.1 hPa WSW 9.7 km/h 16.1 km/h 84 % 0 mm 0 W/m2
17:12 7.4 °C 4.9 °C 1013.1 hPa WSW 14.5 km/h 19.3 km/h 84 % 0 mm 0 W/m2
17:17 7.4 °C 4.9 °C 1013.1 hPa WSW 11.3 km/h 17.7 km/h 84 % 0 mm 0 W/m2
17:22 7.4 °C 4.9 °C 1013.4 hPa West 14.5 km/h 25.7 km/h 84 % 0 mm 0 W/m2
17:27 7.4 °C 4.9 °C 1013.4 hPa WSW 12.9 km/h 19.3 km/h 84 % 0 mm 0 W/m2
17:32 7.3 °C 4.8 °C 1013.4 hPa WSW 12.9 km/h 20.9 km/h 84 % 0 mm 0 W/m2
17:37 7.3 °C 4.8 °C 1013.4 hPa WSW 9.7 km/h 17.7 km/h 84 % 0 mm 0 W/m2
17:42 7.3 °C 4.9 °C 1013.8 hPa WSW 11.3 km/h 19.3 km/h 85 % 0 mm 0 W/m2
17:47 7.2 °C 4.8 °C 1013.8 hPa WSW 16.1 km/h 22.5 km/h 85 % 0 mm 0 W/m2
17:52 7.2 °C 4.8 °C 1013.8 hPa WSW 16.1 km/h 24.1 km/h 85 % 0 mm 0 W/m2
17:57 7.2 °C 4.8 °C 1014.1 hPa WSW 12.9 km/h 24.1 km/h 85 % 0 mm 0 W/m2
18:02 7.2 °C 4.8 °C 1014.1 hPa WSW 14.5 km/h 22.5 km/h 85 % 0 mm 0 W/m2
18:07 7.2 °C 4.7 °C 1013.8 hPa WSW 17.7 km/h 32.2 km/h 84 % 0 mm 0 W/m2
18:12 7.2 °C 4.7 °C 1013.8 hPa WSW 17.7 km/h 30.6 km/h 84 % 0 mm 0 W/m2
18:17 7.2 °C 4.7 °C 1013.8 hPa WSW 17.7 km/h 24.1 km/h 84 % 0 mm 0 W/m2
18:22 7.2 °C 4.7 °C 1013.8 hPa WSW 19.3 km/h 29 km/h 84 % 0 mm 0 W/m2
18:27 7.1 °C 4.6 °C 1013.8 hPa West 14.5 km/h 22.5 km/h 84 % 0 mm 0 W/m2
18:32 7 °C 4.5 °C 1014.1 hPa WSW 11.3 km/h 20.9 km/h 84 % 0 mm 0 W/m2
18:37 7 °C 4.5 °C 1014.1 hPa WSW 14.5 km/h 24.1 km/h 84 % 0 mm 0 W/m2
18:42 7 °C 4.5 °C 1014.1 hPa WSW 14.5 km/h 20.9 km/h 84 % 0 mm 0 W/m2
18:48 7 °C 4.5 °C 1014.1 hPa West 9.7 km/h 16.1 km/h 84 % 0 mm 0 W/m2
18:53 7 °C 4.5 °C 1014.1 hPa WSW 11.3 km/h 20.9 km/h 84 % 0 mm 0 W/m2
18:58 6.9 °C 4.2 °C 1014.1 hPa WSW 12.9 km/h 19.3 km/h 83 % 0 mm 0 W/m2
19:03 6.9 °C 4.2 °C 1014.1 hPa WSW 11.3 km/h 17.7 km/h 83 % 0 mm 0 W/m2
19:08 6.8 °C 4.1 °C 1014.1 hPa WSW 12.9 km/h 20.9 km/h 83 % 0 mm 0 W/m2
19:13 6.8 °C 4.1 °C 1014.1 hPa West 14.5 km/h 22.5 km/h 83 % 0 mm 0 W/m2
19:18 6.7 °C 4 °C 1014.1 hPa WSW 14.5 km/h 22.5 km/h 83 % 0 mm 0 W/m2
19:23 6.7 °C 4 °C 1014.1 hPa WSW 17.7 km/h 32.2 km/h 83 % 0 mm 0 W/m2
19:28 6.7 °C 4 °C 1014.1 hPa West 19.3 km/h 32.2 km/h 83 % 0 mm 0 W/m2
19:33 6.6 °C 3.9 °C 1014.1 hPa WSW 16.1 km/h 24.1 km/h 83 % 0 mm 0 W/m2
19:38 6.6 °C 3.9 °C 1014.1 hPa West 19.3 km/h 29 km/h 83 % 0 mm 0 W/m2
19:43 6.6 °C 3.9 °C 1013.8 hPa West 17.7 km/h 29 km/h 83 % 0 mm 0 W/m2
19:48 6.6 °C 3.9 °C 1014.1 hPa West 19.3 km/h 29 km/h 83 % 0 mm 0 W/m2
19:53 6.5 °C 3.8 °C 1014.1 hPa West 16.1 km/h 24.1 km/h 83 % 0 mm 0 W/m2
19:58 6.5 °C 3.8 °C 1014.1 hPa West 17.7 km/h 30.6 km/h 83 % 0 mm 0 W/m2
20:03 6.4 °C 3.7 °C 1014.1 hPa West 14.5 km/h 22.5 km/h 83 % 0 mm 0 W/m2
20:08 6.4 °C 3.7 °C 1013.8 hPa West 14.5 km/h 20.9 km/h 83 % 0 mm 0 W/m2
20:13 6.5 °C 3.8 °C 1013.8 hPa West 17.7 km/h 30.6 km/h 83 % 0 mm 0 W/m2
20:18 6.5 °C 3.7 °C 1013.8 hPa West 14.5 km/h 22.5 km/h 82 % 0 mm 0 W/m2
20:23 6.5 °C 3.8 °C 1014.1 hPa West 17.7 km/h 33.8 km/h 83 % 0 mm 0 W/m2
20:28 6.6 °C 3.9 °C 1013.8 hPa West 17.7 km/h 25.7 km/h 83 % 0 mm 0 W/m2
20:33 6.6 °C 3.9 °C 1013.8 hPa West 17.7 km/h 30.6 km/h 83 % 0 mm 0 W/m2
20:38 6.5 °C 3.8 °C 1013.8 hPa West 16.1 km/h 29 km/h 83 % 0 mm 0 W/m2
20:43 6.5 °C 4 °C 1013.4 hPa West 17.7 km/h 25.7 km/h 84 % 0 mm 0 W/m2
20:48 6.5 °C 4 °C 1013.8 hPa WSW 16.1 km/h 22.5 km/h 84 % 0 mm 0 W/m2
20:53 6.6 °C 4.1 °C 1013.8 hPa West 16.1 km/h 25.7 km/h 84 % 0 mm 0 W/m2
20:58 6.6 °C 4.1 °C 1013.8 hPa West 14.5 km/h 22.5 km/h 84 % 0 mm 0 W/m2
21:04 6.6 °C 4.1 °C 1013.8 hPa West 16.1 km/h 25.7 km/h 84 % 0 mm 0 W/m2
21:09 6.6 °C 3.9 °C 1013.8 hPa West 16.1 km/h 24.1 km/h 83 % 0 mm 0 W/m2
21:14 6.6 °C 3.9 °C 1013.4 hPa West 11.3 km/h 20.9 km/h 83 % 0 mm 0 W/m2
21:19 6.6 °C 3.9 °C 1013.4 hPa West 14.5 km/h 25.7 km/h 83 % 0 mm 0 W/m2
21:24 6.6 °C 3.9 °C 1013.8 hPa West 14.5 km/h 20.9 km/h 83 % 0 mm 0 W/m2
21:29 6.6 °C 3.9 °C 1013.8 hPa West 19.3 km/h 32.2 km/h 83 % 0 mm 0 W/m2
21:34 6.7 °C 4 °C 1013.8 hPa West 11.3 km/h 17.7 km/h 83 % 0 mm 0 W/m2
21:39 6.7 °C 4 °C 1013.8 hPa West 14.5 km/h 17.7 km/h 83 % 0 mm 0 W/m2
21:44 6.7 °C 4 °C 1013.8 hPa West 4.8 km/h 11.3 km/h 83 % 0 mm 0 W/m2
21:49 6.7 °C 4 °C 1013.8 hPa West 9.7 km/h 17.7 km/h 83 % 0 mm 0 W/m2
21:54 6.7 °C 4 °C 1014.1 hPa WSW 4.8 km/h 11.3 km/h 83 % 0 mm 0 W/m2
21:59 6.7 °C 4 °C 1014.1 hPa SW 1.6 km/h 6.4 km/h 83 % 0 mm 0 W/m2
22:04 6.7 °C 4 °C 1014.1 hPa SSW 6.4 km/h 11.3 km/h 83 % 0 mm 0 W/m2
22:09 6.8 °C 4.1 °C 1014.1 hPa Calm   6.4 km/h 83 % 0 mm 0 W/m2
22:14 6.8 °C 4.1 °C 1014.1 hPa SW 4.8 km/h 9.7 km/h 83 % 0 mm 0 W/m2
22:19 6.8 °C 3.9 °C 1013.8 hPa Calm     82 % 0 mm 0 W/m2
22:24 6.8 °C 4.1 °C 1013.8 hPa SW 6.4 km/h 12.9 km/h 83 % 0 mm 0 W/m2
22:29 6.8 °C 3.9 °C 1013.8 hPa Calm   3.2 km/h 82 % 0 mm 0 W/m2
22:34 6.7 °C 3.8 °C 1013.4 hPa ESE 1.6 km/h 8 km/h 82 % 0 mm 0 W/m2
22:39 6.7 °C 3.8 °C 1013.8 hPa West 4.8 km/h 11.3 km/h 82 % 0 mm 0 W/m2
22:44 6.8 °C 3.8 °C 1013.4 hPa WSW 9.7 km/h 17.7 km/h 81 % 0 mm 0 W/m2
22:49 6.9 °C 3.5 °C 1013.4 hPa WSW 8 km/h 17.7 km/h 79 % 0 mm 0 W/m2
22:54 7.1 °C 3.5 °C 1013.4 hPa WSW 8 km/h 14.5 km/h 78 % 0 mm 0 W/m2
22:59 7.2 °C 3.4 °C 1013.4 hPa West 19.3 km/h 32.2 km/h 77 % 0 mm 0 W/m2
23:04 7.4 °C 3.4 °C 1013.4 hPa West 14.5 km/h 20.9 km/h 76 % 0 mm 0 W/m2
23:09 7.5 °C 3.3 °C 1013.4 hPa West 11.3 km/h 16.1 km/h 75 % 0 mm 0 W/m2
23:14 7.5 °C 3.3 °C 1013.4 hPa West 12.9 km/h 20.9 km/h 75 % 0 mm 0 W/m2
23:19 7.5 °C 3.3 °C 1013.4 hPa West 12.9 km/h 24.1 km/h 75 % 0 mm 0 W/m2
23:24 7.6 °C 3.4 °C 1013.8 hPa WNW 6.4 km/h 14.5 km/h 75 % 0 mm 0 W/m2
23:29 7.5 °C 3.3 °C 1013.8 hPa ESE 3.2 km/h 8 km/h 75 % 0 mm 0 W/m2
23:35 7.3 °C 3.2 °C 1013.4 hPa South 1.6 km/h 3.2 km/h 75 % 0 mm 0 W/m2
23:40 7.2 °C 3.2 °C 1013.8 hPa SW 4.8 km/h 14.5 km/h 76 % 0 mm 0 W/m2
23:45 7.2 °C 3.2 °C 1013.8 hPa East 4.8 km/h 9.7 km/h 76 % 0 mm 0 W/m2
23:50 7 °C 3.1 °C 1013.8 hPa ENE 4.8 km/h 8 km/h 76 % 0 mm 0 W/m2
23:55 6.9 °C 3.2 °C 1013.4 hPa ENE 8 km/h 11.3 km/h 77 % 0 mm 0 W/m2
Delerius-Weather
Compliments of Weather Underground - 2.25 mb

Data updates at regular intervals.